Time;durP1;ratioP1;P1;durP2;ratioP2;P2;SDS_P1;SDS_P2;PMS_P1;PMS_P2;Temp;Humidity;BMP_temperature;BMP_pressure;BME280_temperature;BME280_humidity;BME280_pressure;Samples;Min_cycle;Max_cycle;Signal;HPM_P1;HPM_P2
2022/04/28 00:02:12;;;;;;;6.40;2.92;;;19.10;60.60;;;;;;5018268;28;20496;-58
2022/04/28 00:04:38;;;;;;;6.15;3.22;;;19.10;60.60;;;;;;5023130;28;20467;-59
2022/04/28 00:07:04;;;;;;;6.88;3.03;;;19.10;60.50;;;;;;5018694;28;20060;-59
2022/04/28 00:09:30;;;;;;;5.55;2.90;;;19.00;60.50;;;;;;5021683;28;20395;-59
2022/04/28 00:11:55;;;;;;;6.30;2.90;;;19.00;60.50;;;;;;5012541;28;20152;-59
2022/04/28 00:14:21;;;;;;;6.38;2.92;;;19.00;60.50;;;;;;5015512;28;20180;-58
2022/04/28 00:16:47;;;;;;;5.57;2.78;;;19.00;60.50;;;;;;5011036;28;20307;-59
2022/04/28 00:19:12;;;;;;;6.18;2.78;;;19.00;60.50;;;;;;5021398;28;20552;-59
2022/04/28 00:21:38;;;;;;;5.35;2.97;;;19.00;60.60;;;;;;5019529;28;20025;-59
2022/04/28 00:24:04;;;;;;;8.07;3.42;;;19.00;60.50;;;;;;5014635;28;20025;-59
2022/04/28 00:26:30;;;;;;;6.40;3.00;;;19.00;60.60;;;;;;5013649;28;20521;-59
2022/04/28 00:28:55;;;;;;;6.63;3.28;;;19.00;60.70;;;;;;5014609;28;20184;-58
2022/04/28 00:31:21;;;;;;;7.75;3.15;;;19.00;60.70;;;;;;5020004;28;20064;-58
2022/04/28 00:33:48;;;;;;;6.55;3.17;;;19.00;60.70;;;;;;5013137;28;20155;-59
2022/04/28 00:36:14;;;;;;;5.85;2.90;;;19.00;60.70;;;;;;5022476;28;20076;-59
2022/04/28 00:38:40;;;;;;;5.13;3.00;;;19.00;60.70;;;;;;5014445;28;20036;-59
2022/04/28 00:41:05;;;;;;;6.40;3.30;;;18.90;60.80;;;;;;5014717;28;20487;-59
2022/04/28 00:43:31;;;;;;;6.38;2.90;;;18.90;60.80;;;;;;5020405;28;20445;-59
2022/04/28 00:45:57;;;;;;;6.10;2.95;;;18.90;60.80;;;;;;5019595;28;20037;-59
2022/04/28 00:51:07;;;;;;;5.75;2.78;;;18.90;60.80;;;;;;5015177;28;20196;-59
2022/04/28 00:53:35;;;;;;;5.15;2.35;;;18.90;60.80;;;;;;5014931;28;20033;-59
2022/04/28 00:56:01;;;;;;;5.78;2.75;;;18.90;60.80;;;;;;5025367;28;20075;-59
2022/04/28 00:58:27;;;;;;;5.22;2.50;;;18.90;61.80;;;;;;5017081;28;20034;-59
2022/04/28 01:00:53;;;;;;;6.15;3.03;;;18.80;60.80;;;;;;5017821;28;20033;-58
2022/04/28 01:03:20;;;;;;;6.72;2.80;;;18.90;60.80;;;;;;5014273;28;20063;-59
2022/04/28 01:05:46;;;;;;;5.88;2.85;;;18.90;60.80;;;;;;5017469;28;20041;-59
2022/04/28 01:08:11;;;;;;;7.22;2.92;;;18.90;60.80;;;;;;5011339;28;20049;-59
2022/04/28 01:10:37;;;;;;;7.22;3.13;;;18.90;60.80;;;;;;5025859;28;20026;-59
2022/04/28 01:13:03;;;;;;;6.60;2.65;;;18.80;60.70;;;;;;5021495;28;20475;-59
2022/04/28 01:15:29;;;;;;;6.13;2.90;;;18.80;60.70;;;;;;5013801;28;20140;-59
2022/04/28 01:17:54;;;;;;;5.15;2.70;;;18.80;60.70;;;;;;5013108;28;20546;-59
2022/04/28 01:20:20;;;;;;;5.25;2.75;;;18.80;60.70;;;;;;5017517;28;20029;-59
2022/04/28 01:22:46;;;;;;;5.43;2.65;;;18.80;60.80;;;;;;5015356;28;20034;-59
2022/04/28 01:25:12;;;;;;;5.30;2.80;;;18.80;60.70;;;;;;5013993;28;20026;-58
2022/04/28 01:27:38;;;;;;;5.78;2.65;;;18.80;60.70;;;;;;5014259;28;20456;-58
2022/04/28 01:30:11;;;;;;;5.28;2.78;;;18.80;60.70;;;;;;5013916;28;20064;-59
2022/04/28 01:32:36;;;;;;;4.43;2.67;;;18.80;60.80;;;;;;5013760;28;20061;-59
2022/04/28 01:35:02;;;;;;;6.10;2.88;;;18.80;60.80;;;;;;5013499;28;20796;-59
2022/04/28 01:37:28;;;;;;;7.20;2.92;;;18.80;60.80;;;;;;5015576;28;20030;-58
2022/04/28 01:39:55;;;;;;;7.72;2.70;;;18.70;60.70;;;;;;5013251;28;20022;-59
2022/04/28 01:42:25;;;;;;;4.70;2.55;;;18.70;60.70;;;;;;5015738;28;20031;-59
2022/04/28 01:44:51;;;;;;;5.72;2.80;;;18.70;60.70;;;;;;5014292;28;20091;-59
2022/04/28 01:47:16;;;;;;;6.07;2.85;;;18.70;60.80;;;;;;5018836;28;20057;-59
2022/04/28 01:49:42;;;;;;;6.53;2.80;;;18.70;60.80;;;;;;5017652;28;20057;-58
2022/04/28 01:54:58;;;;;;;5.97;2.83;;;18.70;60.90;;;;;;5015099;28;20092;-59
2022/04/28 01:57:28;;;;;;;5.68;2.78;;;18.70;60.80;;;;;;5015141;28;20029;-59
2022/04/28 01:59:54;;;;;;;6.57;2.85;;;18.70;60.90;;;;;;5014133;28;20033;-59
2022/04/28 02:02:21;;;;;;;5.57;2.58;;;18.70;60.90;;;;;;5010628;28;20407;-59
2022/04/28 02:04:46;;;;;;;4.78;2.88;;;18.70;60.90;;;;;;5013638;28;20532;-58
2022/04/28 02:07:13;;;;;;;7.05;2.55;;;18.70;60.90;;;;;;5015917;28;20037;-59
2022/04/28 02:09:42;;;;;;;5.85;2.72;;;18.70;61.00;;;;;;5014861;28;20026;-59
2022/04/28 02:12:09;;;;;;;5.50;2.60;;;18.70;61.00;;;;;;5014577;28;20045;-59
2022/04/28 02:14:35;;;;;;;5.28;2.67;;;18.60;60.90;;;;;;5024963;28;20033;-59
2022/04/28 02:17:01;;;;;;;5.78;2.60;;;18.60;61.00;;;;;;5016203;28;20076;-59
2022/04/28 02:19:27;;;;;;;5.20;2.80;;;18.60;60.90;;;;;;5016220;28;20400;-59
2022/04/28 02:21:52;;;;;;;5.72;2.67;;;18.60;61.00;;;;;;5014345;28;20045;-59
2022/04/28 02:24:18;;;;;;;4.65;2.53;;;18.60;61.10;;;;;;5014974;28;20040;-59
2022/04/28 02:26:43;;;;;;;6.07;2.60;;;18.60;61.00;;;;;;5012738;28;20104;-58
2022/04/28 02:29:09;;;;;;;6.00;2.67;;;18.60;61.00;;;;;;5010942;28;20038;-59
2022/04/28 02:31:35;;;;;;;5.90;2.70;;;18.60;61.10;;;;;;5018707;28;20025;-59
2022/04/28 02:34:00;;;;;;;5.18;2.50;;;18.60;61.10;;;;;;5014907;28;20042;-59
2022/04/28 02:36:26;;;;;;;4.82;2.50;;;18.60;61.10;;;;;;5017729;28;20021;-58
2022/04/28 02:38:52;;;;;;;6.05;2.60;;;18.60;61.10;;;;;;5013533;28;20402;-59
2022/04/28 02:41:21;;;;;;;5.03;2.50;;;18.60;61.10;;;;;;5016446;28;20036;-59
2022/04/28 02:43:50;;;;;;;5.57;2.50;;;18.60;61.10;;;;;;5013134;28;20036;-59
2022/04/28 02:46:16;;;;;;;5.75;2.55;;;18.60;61.10;;;;;;5017634;28;20037;-58
2022/04/28 02:48:41;;;;;;;5.13;2.70;;;18.60;61.20;;;;;;5019672;28;20426;-59
2022/04/28 02:51:07;;;;;;;6.22;2.80;;;18.60;61.20;;;;;;5017773;28;20040;-61
2022/04/28 02:53:34;;;;;;;5.43;2.55;;;18.60;61.20;;;;;;5016837;28;20033;-61
2022/04/28 02:55:59;;;;;;;6.68;2.80;;;18.50;61.10;;;;;;5016382;28;20034;-62
2022/04/28 02:58:25;;;;;;;6.18;2.60;;;18.50;61.20;;;;;;5018753;28;20414;-61
2022/04/28 03:00:51;;;;;;;6.32;2.72;;;18.50;61.20;;;;;;5016654;28;20033;-61
2022/04/28 03:03:16;;;;;;;6.65;2.60;;;18.50;61.20;;;;;;5018596;28;20040;-61
2022/04/28 03:11:22;;;;;;;5.75;2.40;;;18.50;61.30;;;;;;5058228;28;20112;-62
2022/04/28 03:13:47;;;;;;;6.05;2.80;;;18.50;61.40;;;;;;5050596;28;20064;-62
2022/04/28 03:16:13;;;;;;;5.55;2.50;;;18.50;61.40;;;;;;5057769;28;20107;-61
2022/04/28 03:18:39;;;;;;;4.53;2.47;;;18.50;61.40;;;;;;5056956;28;20044;-61
2022/04/28 03:21:08;;;;;;;5.38;2.60;;;18.50;61.30;;;;;;5061586;28;20060;-61
2022/04/28 03:23:34;;;;;;;4.70;2.40;;;18.50;61.40;;;;;;5057594;28;20036;-61
2022/04/28 03:25:59;;;;;;;5.22;2.47;;;18.50;61.30;;;;;;5062648;28;20033;-62
2022/04/28 03:28:25;;;;;;;6.15;2.50;;;18.50;61.40;;;;;;5062860;28;20065;-61
2022/04/28 03:30:51;;;;;;;3.97;2.50;;;18.50;61.40;;;;;;5059327;28;20031;-61
2022/04/28 03:33:17;;;;;;;5.20;2.72;;;18.40;61.30;;;;;;5063428;28;20704;-62
2022/04/28 03:35:43;;;;;;;6.32;2.60;;;18.50;61.40;;;;;;5063298;28;20040;-61
2022/04/28 03:38:17;;;;;;;4.43;2.47;;;18.50;62.40;;;;;;5063512;28;20039;-60
2022/04/28 03:40:43;;;;;;;5.47;2.38;;;18.50;61.40;;;;;;5056593;28;20116;-62
2022/04/28 03:43:09;;;;;;;5.10;2.40;;;18.40;61.40;;;;;;5062092;28;20056;-61
2022/04/28 03:45:35;;;;;;;6.35;2.70;;;18.40;61.40;;;;;;5030979;28;20517;-61
2022/04/28 03:48:01;;;;;;;5.93;2.60;;;18.40;61.40;;;;;;5021955;28;20054;-62
2022/04/28 03:50:29;;;;;;;7.53;2.80;;;18.40;61.50;;;;;;5012472;28;20560;-62
2022/04/28 03:52:55;;;;;;;5.30;2.30;;;18.40;61.40;;;;;;5014504;28;20390;-61
2022/04/28 03:55:21;;;;;;;4.72;2.55;;;18.40;61.50;;;;;;5018762;28;20057;-62
2022/04/28 03:57:47;;;;;;;4.75;2.42;;;18.40;61.50;;;;;;5020929;28;20147;-61
2022/04/28 04:00:13;;;;;;;5.57;2.30;;;18.40;61.50;;;;;;5017131;28;20538;-61
2022/04/28 04:02:38;;;;;;;5.53;2.40;;;18.40;61.50;;;;;;5015379;28;20034;-62
2022/04/28 04:05:05;;;;;;;6.35;2.45;;;18.40;61.50;;;;;;5016090;28;20033;-62
2022/04/28 04:07:31;;;;;;;5.57;2.50;;;18.40;61.50;;;;;;5015240;28;20038;-61
2022/04/28 04:09:57;;;;;;;5.18;2.50;;;18.40;61.70;;;;;;5023807;28;20072;-61
2022/04/28 04:12:22;;;;;;;5.00;2.50;;;18.40;61.50;;;;;;5019210;28;20477;-61
2022/04/28 04:14:48;;;;;;;5.15;2.63;;;18.40;62.60;;;;;;5015646;28;20144;-61
2022/04/28 04:17:15;;;;;;;4.55;2.42;;;18.40;61.60;;;;;;5014628;28;20082;-62
2022/04/28 04:19:42;;;;;;;4.85;2.40;;;18.30;61.50;;;;;;5019630;28;20026;-61
2022/04/28 04:22:08;;;;;;;5.90;2.72;;;18.30;61.60;;;;;;5021693;28;20027;-61
2022/04/28 04:24:34;;;;;;;7.20;2.58;;;18.30;61.60;;;;;;5015814;28;20038;-62
2022/04/28 04:27:00;;;;;;;5.75;2.40;;;18.30;61.50;;;;;;5016812;28;20490;-61
2022/04/28 04:29:26;;;;;;;4.82;2.47;;;18.30;61.60;;;;;;5011678;28;20480;-61
2022/04/28 04:34:37;;;;;;;5.43;2.42;;;18.30;61.60;;;;;;5021430;28;20048;-62
2022/04/28 04:37:03;;;;;;;6.63;2.50;;;18.30;62.70;;;;;;5027781;28;20025;-61
2022/04/28 04:39:29;;;;;;;4.78;2.40;;;18.30;61.50;;;;;;5013684;28;20061;-60
2022/04/28 04:41:54;;;;;;;5.35;2.40;;;18.30;61.70;;;;;;5025626;28;20548;-61
2022/04/28 04:44:20;;;;;;;5.38;2.33;;;18.30;61.60;;;;;;5023944;28;20449;-62
2022/04/28 04:46:46;;;;;;;5.05;2.63;;;18.30;61.60;;;;;;5017085;28;20060;-61
2022/04/28 04:49:11;;;;;;;5.22;2.47;;;18.30;61.60;;;;;;5016058;28;20045;-61
2022/04/28 04:51:37;;;;;;;5.72;2.60;;;18.30;61.60;;;;;;5017480;28;20025;-62
2022/04/28 04:54:03;;;;;;;5.15;2.50;;;18.30;61.70;;;;;;5018605;28;20048;-62
2022/04/28 04:56:29;;;;;;;4.90;2.42;;;18.30;61.70;;;;;;5017662;28;20030;-62
2022/04/28 04:58:55;;;;;;;6.35;2.60;;;18.30;61.60;;;;;;5018515;28;20708;-62
2022/04/28 05:01:20;;;;;;;4.32;2.25;;;18.20;61.70;;;;;;5019904;28;20025;-62
2022/04/28 05:03:46;;;;;;;6.22;2.70;;;18.30;61.60;;;;;;5013887;28;20026;-61
2022/04/28 05:06:11;;;;;;;6.10;2.75;;;18.30;61.70;;;;;;5016734;28;20543;-62
2022/04/28 05:08:37;;;;;;;5.07;2.65;;;18.20;61.50;;;;;;5014815;28;20045;-62
2022/04/28 05:11:03;;;;;;;9.90;2.80;;;18.20;61.60;;;;;;5023261;28;20025;-62
2022/04/28 05:13:28;;;;;;;6.40;2.53;;;18.20;61.50;;;;;;5024391;28;20504;-61
2022/04/28 05:15:54;;;;;;;7.95;2.40;;;18.30;61.50;;;;;;5008681;28;20506;-62
2022/04/28 05:18:20;;;;;;;5.78;2.33;;;18.30;62.20;;;;;;5020171;28;20029;-61
2022/04/28 05:20:45;;;;;;;9.98;2.55;;;18.20;62.00;;;;;;5012604;28;20049;-62
2022/04/28 05:23:11;;;;;;;6.93;2.83;;;18.20;61.80;;;;;;5018405;28;20038;-62
2022/04/28 05:25:37;;;;;;;7.78;2.50;;;18.30;62.40;;;;;;5014034;28;21393;-60
2022/04/28 05:28:02;;;;;;;9.00;2.85;;;18.20;62.30;;;;;;5015434;28;20041;-61
2022/04/28 05:30:28;;;;;;;9.35;2.33;;;18.30;62.10;;;;;;5023171;28;20045;-61
2022/04/28 05:32:54;;;;;;;9.02;2.80;;;18.20;62.30;;;;;;5013202;28;20203;-60
2022/04/28 05:35:19;;;;;;;8.75;2.83;;;18.30;63.30;;;;;;5023793;28;20485;-60
2022/04/28 05:37:45;;;;;;;11.73;2.78;;;18.20;62.10;;;;;;5020806;28;20040;-61
2022/04/28 05:40:12;;;;;;;13.23;3.25;;;18.30;62.60;;;;;;5018170;28;20040;-61
2022/04/28 05:45:42;;;;;;;10.73;3.65;;;18.30;63.40;;;;;;4963209;28;20049;-60
2022/04/28 05:48:11;;;;;;;9.80;3.50;;;18.30;63.70;;;;;;4982351;28;20500;-61
2022/04/28 05:50:37;;;;;;;9.05;3.28;;;18.30;63.90;;;;;;4958433;28;20408;-61
2022/04/28 05:53:03;;;;;;;8.07;3.17;;;18.20;63.70;;;;;;4982777;28;20034;-61
2022/04/28 05:55:29;;;;;;;7.78;3.17;;;18.20;63.90;;;;;;4984207;28;20080;-60
2022/04/28 05:57:58;;;;;;;10.77;3.17;;;18.20;63.70;;;;;;4983835;28;20044;-61
2022/04/28 06:00:25;;;;;;;7.25;3.00;;;18.20;63.60;;;;;;4983024;28;20117;-60
2022/04/28 06:02:50;;;;;;;10.30;3.10;;;18.20;63.50;;;;;;4980895;28;20585;-60
2022/04/28 06:05:16;;;;;;;13.82;3.45;;;18.20;63.50;;;;;;4985328;28;20034;-61
2022/04/28 06:07:41;;;;;;;9.98;3.08;;;18.20;63.30;;;;;;4985079;28;20110;-60
2022/04/28 06:10:07;;;;;;;12.82;3.15;;;18.20;63.30;;;;;;4984688;28;20515;-61
2022/04/28 06:12:33;;;;;;;8.93;3.38;;;18.20;63.50;;;;;;4984359;28;20093;-61
2022/04/28 06:14:59;;;;;;;10.43;3.00;;;18.20;63.50;;;;;;4987337;28;20034;-60
2022/04/28 06:17:24;;;;;;;7.97;3.15;;;18.20;63.60;;;;;;4989761;28;20037;-61
2022/04/28 06:19:50;;;;;;;8.73;3.33;;;18.20;63.50;;;;;;4991057;28;20031;-61
2022/04/28 06:22:16;;;;;;;10.27;3.17;;;18.20;63.30;;;;;;5002971;28;20095;-61
2022/04/28 06:24:41;;;;;;;13.80;3.47;;;18.20;63.30;;;;;;5025334;28;20022;-61
2022/04/28 06:27:07;;;;;;;11.02;3.38;;;18.10;63.50;;;;;;5024544;28;20061;-61
2022/04/28 06:29:33;;;;;;;8.93;3.47;;;18.20;63.50;;;;;;5026057;28;20037;-60
2022/04/28 06:31:58;;;;;;;9.40;3.45;;;18.10;63.20;;;;;;5024398;28;20026;-61
2022/04/28 06:34:24;;;;;;;9.60;2.95;;;18.10;63.40;;;;;;5030315;28;20033;-60
2022/04/28 06:36:49;;;;;;;10.20;3.30;;;18.10;63.30;;;;;;5026158;28;20022;-60
2022/04/28 06:39:15;;;;;;;12.13;3.45;;;18.10;63.30;;;;;;5029262;28;20025;-61
2022/04/28 06:41:41;;;;;;;7.38;3.08;;;18.10;63.50;;;;;;5026339;28;20044;-60
2022/04/28 06:44:06;;;;;;;10.63;3.40;;;18.10;63.40;;;;;;5023729;28;20160;-61
2022/04/28 06:46:32;;;;;;;9.75;3.42;;;18.10;63.20;;;;;;5020791;28;20164;-61
2022/04/28 06:48:58;;;;;;;8.40;3.10;;;18.10;63.30;;;;;;5021683;28;20041;-61
2022/04/28 06:51:23;;;;;;;10.43;3.60;;;18.10;63.20;;;;;;5024173;28;20044;-61
2022/04/28 06:53:49;;;;;;;8.50;3.33;;;18.10;63.50;;;;;;5020195;28;20033;-61
2022/04/28 06:56:15;;;;;;;10.65;3.50;;;18.10;63.50;;;;;;5023896;28;20064;-60
2022/04/28 06:58:40;;;;;;;8.85;3.40;;;18.10;63.50;;;;;;5035708;28;20029;-61
2022/04/28 07:01:06;;;;;;;9.77;3.72;;;18.10;63.40;;;;;;5031856;28;20105;-61
2022/04/28 07:03:32;;;;;;;8.23;3.28;;;18.10;63.50;;;;;;5029113;28;20033;-60
2022/04/28 07:05:58;;;;;;;8.98;3.50;;;18.10;63.40;;;;;;5025098;28;20028;-61
2022/04/28 07:08:23;;;;;;;8.13;3.53;;;18.10;63.40;;;;;;5016805;28;20469;-60
2022/04/28 07:10:49;;;;;;;9.43;3.33;;;18.10;63.70;;;;;;5029912;28;20029;-60
2022/04/28 07:13:15;;;;;;;8.23;3.20;;;18.10;63.60;;;;;;5026701;28;20485;-61
2022/04/28 07:15:41;;;;;;;9.52;3.67;;;18.10;63.50;;;;;;5019587;28;20108;-61
2022/04/28 07:18:06;;;;;;;9.80;3.80;;;18.00;63.60;;;;;;5023141;28;20029;-61
2022/04/28 07:20:33;;;;;;;9.93;3.63;;;18.10;63.60;;;;;;5017535;28;20401;-61
2022/04/28 07:23:01;;;;;;;9.00;3.55;;;18.00;63.80;;;;;;5018734;28;20130;-61
2022/04/28 07:25:30;;;;;;;8.98;3.60;;;18.00;63.80;;;;;;5022563;28;20041;-61
2022/04/28 07:27:56;;;;;;;8.45;3.20;;;18.00;63.80;;;;;;5020087;28;20105;-61
2022/04/28 07:30:22;;;;;;;8.15;3.63;;;18.10;63.80;;;;;;5022578;28;20032;-61
2022/04/28 07:32:48;;;;;;;8.98;3.60;;;18.00;63.80;;;;;;5014225;28;20034;-61
2022/04/28 07:35:14;;;;;;;7.60;3.17;;;18.00;63.80;;;;;;5017129;28;20048;-61
2022/04/28 07:37:40;;;;;;;9.68;3.50;;;18.00;63.80;;;;;;5022367;28;20026;-61
2022/04/28 07:40:06;;;;;;;7.25;3.38;;;18.00;63.60;;;;;;5020608;28;20053;-61
2022/04/28 07:42:33;;;;;;;9.88;3.65;;;18.10;63.80;;;;;;5022391;28;20055;-61
2022/04/28 07:44:59;;;;;;;9.00;3.35;;;18.00;63.80;;;;;;5025993;28;20029;-60
2022/04/28 07:47:26;;;;;;;8.52;3.50;;;18.10;63.70;;;;;;5014355;28;20510;-61
2022/04/28 07:49:53;;;;;;;9.48;3.67;;;18.10;63.70;;;;;;5018725;28;20056;-61
2022/04/28 07:52:19;;;;;;;8.57;3.85;;;18.10;63.70;;;;;;5022474;28;20026;-61
2022/04/28 07:54:45;;;;;;;8.43;3.40;;;18.00;63.60;;;;;;5023201;28;20457;-61
2022/04/28 07:57:10;;;;;;;7.60;3.78;;;18.00;63.60;;;;;;5015506;28;20068;-61
2022/04/28 07:59:37;;;;;;;9.70;3.40;;;18.10;63.50;;;;;;5015418;28;20554;-61
2022/04/28 08:02:03;;;;;;;8.45;3.72;;;18.10;63.70;;;;;;5018766;28;20545;-61
2022/04/28 08:04:30;;;;;;;10.15;3.70;;;18.00;63.60;;;;;;5023486;28;20037;-61
2022/04/28 08:06:55;;;;;;;10.07;3.70;;;18.00;63.60;;;;;;5024568;28;20092;-60
2022/04/28 08:09:21;;;;;;;8.68;3.38;;;18.00;63.60;;;;;;5024580;28;20033;-61
2022/04/28 08:11:47;;;;;;;8.40;3.85;;;18.00;63.60;;;;;;5021985;28;20056;-61
2022/04/28 08:14:12;;;;;;;9.60;3.40;;;18.00;63.60;;;;;;5016501;28;20029;-61
2022/04/28 08:16:38;;;;;;;9.35;3.65;;;18.00;63.60;;;;;;5025292;28;20476;-61
2022/04/28 08:19:04;;;;;;;7.88;3.33;;;18.00;63.60;;;;;;5024025;28;20433;-61
2022/04/28 08:21:30;;;;;;;8.07;3.40;;;18.00;63.60;;;;;;5019454;28;20029;-61
2022/04/28 08:23:56;;;;;;;8.63;3.42;;;18.10;63.60;;;;;;5015657;28;20026;-61
2022/04/28 08:26:21;;;;;;;8.85;3.90;;;18.10;63.60;;;;;;5015298;28;20401;-61
2022/04/28 08:28:47;;;;;;;8.25;3.75;;;18.00;63.50;;;;;;5019609;28;20091;-61
2022/04/28 08:31:13;;;;;;;7.03;3.63;;;18.00;63.50;;;;;;5020626;28;20117;-61
2022/04/28 08:33:38;;;;;;;8.23;3.60;;;18.00;63.40;;;;;;5022693;28;20026;-61
2022/04/28 08:36:04;;;;;;;7.82;3.47;;;18.00;63.50;;;;;;5021903;28;20057;-61
2022/04/28 08:38:31;;;;;;;8.48;3.58;;;18.00;63.50;;;;;;5013826;28;20033;-61
2022/04/28 08:41:01;;;;;;;8.48;3.45;;;18.00;63.50;;;;;;5020196;28;20030;-61
2022/04/28 08:43:33;;;;;;;7.95;3.80;;;18.10;63.50;;;;;;5022935;28;20033;-61
2022/04/28 08:48:53;;;;;;;7.43;3.60;;;18.00;63.40;;;;;;5024372;28;20068;-60
2022/04/28 08:51:20;;;;;;;8.85;3.75;;;18.00;63.40;;;;;;5022714;28;20021;-61
2022/04/28 08:53:47;;;;;;;8.77;3.60;;;18.00;63.40;;;;;;5022095;28;20485;-61
2022/04/28 08:56:14;;;;;;;7.15;3.47;;;18.00;63.40;;;;;;5020120;28;20379;-61
2022/04/28 08:58:40;;;;;;;7.20;3.42;;;18.00;63.30;;;;;;5025822;28;20109;-61
2022/04/28 09:01:06;;;;;;;9.23;3.90;;;18.00;63.30;;;;;;5020554;28;20030;-61
2022/04/28 09:03:31;;;;;;;7.45;3.50;;;18.10;63.40;;;;;;5020673;28;20032;-61
2022/04/28 09:05:58;;;;;;;7.70;3.67;;;18.00;63.20;;;;;;5012915;28;20060;-61
2022/04/28 09:08:24;;;;;;;6.82;3.45;;;18.00;63.30;;;;;;5015293;28;20585;-61
2022/04/28 09:10:49;;;;;;;6.57;3.50;;;18.00;63.20;;;;;;5017563;28;20141;-61
2022/04/28 09:15:59;;;;;;;7.68;3.47;;;18.00;63.20;;;;;;5023194;28;20087;-61
2022/04/28 09:18:25;;;;;;;10.27;3.72;;;18.00;63.20;;;;;;5018832;28;20473;-61
2022/04/28 09:20:51;;;;;;;7.53;3.65;;;18.00;63.10;;;;;;5013483;28;20028;-60
2022/04/28 09:23:18;;;;;;;8.68;3.85;;;18.00;63.30;;;;;;5019856;28;20103;-61
2022/04/28 09:25:44;;;;;;;7.78;3.55;;;18.00;63.20;;;;;;5019535;28;20091;-61
2022/04/28 09:28:10;;;;;;;8.13;4.28;;;18.00;63.30;;;;;;5021631;28;20391;-61
2022/04/28 09:30:49;;;;;;;6.65;3.30;;;18.00;63.20;;;;;;5027797;28;20032;-61
2022/04/28 09:33:15;;;;;;;8.05;3.63;;;18.00;63.20;;;;;;5022053;28;20120;-61
2022/04/28 09:35:45;;;;;;;6.68;3.42;;;18.00;63.00;;;;;;5017772;28;20072;-61
2022/04/28 09:38:10;;;;;;;9.05;3.72;;;18.00;63.10;;;;;;5013243;28;20518;-60
2022/04/28 09:43:20;;;;;;;8.05;3.50;;;18.00;63.10;;;;;;5024051;28;20076;-61
2022/04/28 09:45:46;;;;;;;8.48;3.72;;;18.00;63.20;;;;;;5027970;28;20041;-61
2022/04/28 09:48:11;;;;;;;7.85;3.58;;;18.00;62.90;;;;;;5025006;28;20133;-60
2022/04/28 09:50:38;;;;;;;6.10;3.35;;;18.00;63.00;;;;;;5011030;28;20037;-61
2022/04/28 09:53:05;;;;;;;7.95;3.60;;;18.00;63.10;;;;;;5016449;28;20037;-61
2022/04/28 09:55:31;;;;;;;9.10;3.67;;;18.00;63.10;;;;;;5024789;28;20030;-61
2022/04/28 09:57:56;;;;;;;7.03;3.28;;;18.00;62.90;;;;;;5018393;28;20036;-61
2022/04/28 10:00:22;;;;;;;7.40;3.80;;;18.00;62.90;;;;;;5022744;28;20029;-61
2022/04/28 10:02:48;;;;;;;8.70;3.72;;;18.00;63.10;;;;;;5017561;28;20412;-61
2022/04/28 10:05:14;;;;;;;9.10;3.35;;;18.00;62.90;;;;;;5016329;28;20041;-61
2022/04/28 10:07:40;;;;;;;7.50;3.25;;;18.00;62.90;;;;;;5014313;28;20423;-61
2022/04/28 10:10:06;;;;;;;8.85;3.63;;;18.00;62.90;;;;;;5027708;28;20029;-61
2022/04/28 10:12:32;;;;;;;6.32;3.17;;;18.00;63.00;;;;;;5023211;28;20036;-61
2022/04/28 10:14:57;;;;;;;7.30;3.90;;;17.90;62.90;;;;;;5021302;28;20024;-61
2022/04/28 10:17:26;;;;;;;6.15;3.25;;;18.00;63.00;;;;;;5002450;28;20079;-61
2022/04/28 10:20:25;;;;;;;7.05;3.30;;;17.90;62.80;;;;;;5016846;28;20032;-61
2022/04/28 10:22:51;;;;;;;6.72;3.35;;;18.00;63.00;;;;;;5015817;28;20554;-60
2022/04/28 10:33:50;;;;;;;6.78;3.22;;;18.00;63.00;;;;;;4998712;28;20041;-61
2022/04/28 10:36:19;;;;;;;8.35;3.70;;;18.00;64.10;;;;;;4968661;28;20418;-60
2022/04/28 10:39:05;;;;;;;7.22;3.80;;;18.00;63.00;;;;;;4991102;28;20111;-61
2022/04/28 10:41:31;;;;;;;8.18;3.63;;;18.00;62.70;;;;;;4991085;28;20068;-61
2022/04/28 10:43:58;;;;;;;7.65;3.50;;;17.90;62.80;;;;;;4996001;28;20037;-61
2022/04/28 10:46:27;;;;;;;6.55;2.85;;;18.00;62.90;;;;;;4999313;28;20041;-61
2022/04/28 10:48:54;;;;;;;6.28;3.53;;;18.00;62.90;;;;;;4999342;28;20049;-61
2022/04/28 10:51:26;;;;;;;6.93;3.28;;;18.00;62.90;;;;;;4999477;28;20096;-61
2022/04/28 10:54:10;;;;;;;5.70;3.30;;;18.00;62.90;;;;;;4990361;28;20037;-62
2022/04/28 10:56:42;;;;;;;7.30;3.22;;;18.00;62.90;;;;;;4993536;28;20026;-61
2022/04/28 10:59:34;;;;;;;6.78;3.47;;;18.00;62.90;;;;;;4989157;28;20561;-61
2022/04/28 11:02:13;;;;;;;6.82;3.33;;;18.00;62.80;;;;;;5005218;28;20041;-61
2022/04/28 11:04:39;;;;;;;7.40;3.42;;;18.00;62.90;;;;;;5001719;28;20063;-61
2022/04/28 11:07:06;;;;;;;7.80;3.30;;;18.00;62.80;;;;;;5027018;28;20284;-61
2022/04/28 11:09:40;;;;;;;7.20;3.60;;;18.00;62.80;;;;;;5019626;28;20120;-61
2022/04/28 11:12:18;;;;;;;8.18;3.70;;;18.00;62.70;;;;;;5023784;28;20025;-61
2022/04/28 11:14:43;;;;;;;5.72;3.30;;;18.00;62.80;;;;;;5023499;28;20516;-61
2022/04/28 11:17:13;;;;;;;7.88;3.78;;;18.00;62.80;;;;;;5019939;28;20034;-61
2022/04/28 11:19:39;;;;;;;7.70;3.60;;;18.00;62.70;;;;;;5024824;28;20022;-61
2022/04/28 11:22:05;;;;;;;6.25;3.33;;;18.00;62.70;;;;;;5017912;28;20180;-61
2022/04/28 11:24:32;;;;;;;7.35;3.30;;;18.00;62.80;;;;;;5027190;28;20460;-61
2022/04/28 11:26:59;;;;;;;7.47;3.55;;;18.00;62.70;;;;;;5024424;28;20207;-60
2022/04/28 11:29:24;;;;;;;7.97;3.70;;;18.00;62.60;;;;;;5015205;28;20045;-61
2022/04/28 11:31:50;;;;;;;6.75;3.55;;;18.00;62.60;;;;;;5015051;28;20030;-61
2022/04/28 11:34:17;;;;;;;7.28;3.60;;;18.00;62.70;;;;;;5022716;28;20045;-61
2022/04/28 11:36:43;;;;;;;6.65;3.70;;;18.00;62.60;;;;;;5021710;28;20113;-61
2022/04/28 11:39:10;;;;;;;7.60;3.78;;;18.00;62.60;;;;;;5022236;28;20034;-61
2022/04/28 11:41:39;;;;;;;5.65;3.15;;;18.00;62.60;;;;;;5023058;28;20029;-61
2022/04/28 11:44:09;;;;;;;7.38;3.47;;;18.00;62.70;;;;;;5021568;28;20022;-61
2022/04/28 11:46:50;;;;;;;6.97;3.15;;;18.00;62.60;;;;;;5021834;28;20038;-60
2022/04/28 11:49:17;;;;;;;6.57;3.17;;;18.00;62.60;;;;;;5026298;28;20037;-61
2022/04/28 11:51:43;;;;;;;5.43;3.38;;;18.00;62.70;;;;;;5019300;28;20457;-61
2022/04/28 11:54:38;;;;;;;7.30;3.35;;;18.00;62.60;;;;;;5016977;28;20026;-61
2022/04/28 11:57:08;;;;;;;7.75;3.40;;;18.00;62.60;;;;;;5012083;28;20139;-61
2022/04/28 11:59:40;;;;;;;6.85;3.47;;;18.00;62.70;;;;;;5022110;28;20038;-60
2022/04/28 12:02:24;;;;;;;6.30;3.20;;;18.00;62.60;;;;;;5022757;28;20033;-61
2022/04/28 12:04:50;;;;;;;7.20;3.40;;;18.00;62.70;;;;;;5015391;28;20022;-60
2022/04/28 12:07:20;;;;;;;6.53;3.58;;;18.00;62.60;;;;;;5026947;28;20349;-61
2022/04/28 12:15:15;;;;;;;;;;;18.00;62.60;;;;;;5021926;28;20091;-61
2022/04/28 12:20:55;;;;;;;6.85;3.17;;;18.00;62.60;;;;;;5021600;28;20397;-61
2022/04/28 12:23:31;;;;;;;7.35;3.42;;;18.00;62.60;;;;;;5016910;28;20034;-61
2022/04/28 12:26:00;;;;;;;7.03;3.03;;;18.00;62.60;;;;;;5015326;28;20444;-61
2022/04/28 12:28:40;;;;;;;6.97;3.70;;;18.00;62.50;;;;;;5020071;28;20139;-61
2022/04/28 12:31:13;;;;;;;7.60;3.13;;;18.00;62.50;;;;;;5023075;28;20509;-61
2022/04/28 12:33:39;;;;;;;6.32;2.90;;;18.00;62.60;;;;;;5020561;28;20040;-61
2022/04/28 12:36:07;;;;;;;5.88;3.10;;;18.00;62.50;;;;;;5020126;28;20051;-61
2022/04/28 12:38:36;;;;;;;6.10;3.42;;;18.00;62.50;;;;;;5014058;28;20035;-61
2022/04/28 12:41:17;;;;;;;6.65;3.08;;;18.00;62.40;;;;;;5012962;28;20026;-61
2022/04/28 12:43:50;;;;;;;5.80;2.90;;;18.00;62.40;;;;;;5023183;28;20368;-61
2022/04/28 12:46:36;;;;;;;6.68;3.35;;;18.00;62.40;;;;;;5016883;28;20025;-61
2022/04/28 12:49:03;;;;;;;6.88;3.38;;;18.10;62.40;;;;;;5018610;28;20143;-61
2022/04/28 12:51:30;;;;;;;6.82;3.60;;;18.00;62.30;;;;;;5024892;28;20401;-59
2022/04/28 12:54:13;;;;;;;6.28;3.13;;;18.10;62.30;;;;;;5014738;28;20025;-61
2022/04/28 12:56:40;;;;;;;6.72;3.38;;;18.10;62.30;;;;;;5014389;28;20037;-61
2022/04/28 12:59:07;;;;;;;6.18;3.10;;;18.10;62.20;;;;;;5019368;28;20065;-61
2022/04/28 13:01:33;;;;;;;5.65;3.28;;;18.20;62.30;;;;;;5020653;28;20030;-60
2022/04/28 13:04:02;;;;;;;7.47;3.25;;;18.20;62.20;;;;;;5021247;28;20384;-61
2022/04/28 13:06:30;;;;;;;6.13;3.10;;;18.20;62.20;;;;;;5023096;28;20120;-61
2022/04/28 13:08:56;;;;;;;6.22;3.40;;;18.20;63.20;;;;;;5021330;28;20068;-61
2022/04/28 13:11:28;;;;;;;5.97;3.20;;;18.20;62.00;;;;;;5023859;28;20022;-61
2022/04/28 13:13:54;;;;;;;5.75;3.33;;;18.20;62.00;;;;;;5027145;28;20037;-61
2022/04/28 13:16:20;;;;;;;5.90;3.28;;;18.20;62.00;;;;;;5020993;28;20033;-61
2022/04/28 13:18:45;;;;;;;6.28;3.10;;;18.20;62.00;;;;;;5023643;28;20049;-61
2022/04/28 13:21:12;;;;;;;6.63;3.20;;;18.20;61.90;;;;;;5025022;28;20024;-61
2022/04/28 13:23:38;;;;;;;5.68;2.90;;;18.30;62.00;;;;;;5014323;28;20037;-61
2022/04/28 13:26:04;;;;;;;6.63;3.30;;;18.30;61.90;;;;;;5018344;28;20018;-61
2022/04/28 13:28:30;;;;;;;5.78;3.13;;;18.30;61.80;;;;;;5030627;28;20042;-61